Time;durP1;ratioP1;P1;durP2;ratioP2;P2;SDS_P1;SDS_P2;PMS_P1;PMS_P2;Temp;Humidity;BMP_temperature;BMP_pressure;BME280_temperature;BME280_humidity;BME280_pressure;Samples;Min_cycle;Max_cycle;Signal;HPM_P1;HPM_P2
2023/09/23 00:01:57;;;;;;;10.20;3.38;;;;;;;11.90;100.00;100772.69;5161470;28;20083;-71
2023/09/23 00:04:29;;;;;;;8.35;3.60;;;;;;;11.90;100.00;100772.69;5188515;23;20040;-72
2023/09/23 00:07:00;;;;;;;21.33;3.85;;;;;;;11.87;100.00;100775.72;5199338;28;20065;-72
2023/09/23 00:09:31;;;;;;;19.52;4.70;;;;;;;11.87;100.00;100778.41;5197963;28;20057;-71
2023/09/23 00:12:03;;;;;;;13.68;4.00;;;;;;;11.85;100.00;100785.81;5198015;28;20925;-72
2023/09/23 00:14:33;;;;;;;11.70;3.58;;;;;;;11.83;100.00;100785.97;5199358;23;20065;-72
2023/09/23 00:17:04;;;;;;;17.42;4.30;;;;;;;11.80;100.00;100783.63;5193086;28;20516;-71
2023/09/23 00:19:34;;;;;;;13.73;4.07;;;;;;;11.83;100.00;100788.66;5191373;28;20024;-72
2023/09/23 00:22:05;;;;;;;10.52;3.63;;;;;;;11.82;100.00;100795.06;5198449;28;20032;-71
2023/09/23 00:24:36;;;;;;;21.42;4.10;;;;;;;11.80;100.00;100794.38;5208068;23;20039;-71
2023/09/23 00:27:07;;;;;;;6.63;3.20;;;;;;;11.80;100.00;100793.53;5198518;28;20049;-71
2023/09/23 00:29:38;;;;;;;13.80;3.53;;;;;;;11.82;100.00;100797.75;5194211;28;20448;-71
2023/09/23 00:32:08;;;;;;;13.05;3.42;;;;;;;11.84;100.00;100800.25;5190954;28;20029;-72
2023/09/23 00:34:40;;;;;;;9.45;3.22;;;;;;;11.84;100.00;100805.63;5204067;23;20116;-72
2023/09/23 00:37:10;;;;;;;9.70;3.20;;;;;;;11.82;100.00;100811.19;5199908;28;20436;-72
2023/09/23 00:39:42;;;;;;;15.85;3.42;;;;;;;11.79;100.00;100811.50;5196860;28;20075;-72
2023/09/23 00:42:12;;;;;;;16.00;3.42;;;;;;;11.76;100.00;100808.34;5196537;28;20029;-71
2023/09/23 00:44:44;;;;;;;12.43;3.50;;;;;;;11.72;100.00;100810.53;5205909;23;20052;-72
2023/09/23 00:47:15;;;;;;;12.25;3.58;;;;;;;11.74;100.00;100810.34;5200274;28;20052;-72
2023/09/23 00:49:46;;;;;;;11.85;2.67;;;;;;;11.77;100.00;100818.91;5192124;28;20252;-72
2023/09/23 00:52:17;;;;;;;13.82;3.10;;;;;;;11.72;100.00;100815.91;5191731;28;20121;-72
2023/09/23 00:54:49;;;;;;;17.95;3.22;;;;;;;11.72;100.00;100815.06;5197996;23;20080;-72
2023/09/23 00:57:21;;;;;;;10.48;3.30;;;;;;;11.71;100.00;100818.78;5195273;28;20045;-72
2023/09/23 00:59:52;;;;;;;8.43;3.15;;;;;;;11.71;100.00;100821.47;5192754;28;21339;-72
2023/09/23 01:02:23;;;;;;;7.50;3.63;;;;;;;11.72;100.00;100820.44;5193947;28;20551;-72
2023/09/23 01:04:55;;;;;;;8.95;2.80;;;;;;;11.70;100.00;100825.13;5202710;23;20083;-70
2023/09/23 01:07:27;;;;;;;16.23;3.92;;;;;;;11.73;100.00;100832.88;5202036;28;20087;-71
2023/09/23 01:09:57;;;;;;;16.27;3.00;;;;;;;11.71;100.00;100834.91;5195016;28;20100;-71
2023/09/23 01:12:28;;;;;;;24.17;3.80;;;;;;;11.75;100.00;100834.38;5190126;28;20034;-71
2023/09/23 01:14:59;;;;;;;15.48;3.47;;;;;;;11.77;100.00;100845.78;5207859;23;20048;-72
2023/09/23 01:17:29;;;;;;;12.95;3.85;;;;;;;11.79;100.00;100838.38;5197325;28;20041;-72
2023/09/23 01:20:00;;;;;;;15.25;4.20;;;;;;;11.79;100.00;100841.06;5194057;28;20034;-71
2023/09/23 01:22:30;;;;;;;15.82;4.00;;;;;;;11.80;100.00;100852.69;5190178;28;20037;-71
2023/09/23 01:25:01;;;;;;;14.02;3.47;;;;;;;11.78;100.00;100847.44;5201904;23;20049;-72
2023/09/23 01:27:34;;;;;;;16.38;3.80;;;;;;;11.74;100.00;100858.72;5197105;28;20083;-73
2023/09/23 01:30:05;;;;;;;15.52;4.00;;;;;;;11.79;100.00;100851.81;5192670;28;20037;-73
2023/09/23 01:32:46;;;;;;;11.98;3.97;;;;;;;11.79;100.00;100853.66;5190185;28;20037;-72
2023/09/23 01:35:17;;;;;;;11.18;3.47;;;;;;;11.75;100.00;100866.63;5204448;23;20049;-72
2023/09/23 01:37:49;;;;;;;14.80;3.65;;;;;;;11.76;100.00;100862.09;5197957;28;20072;-72
2023/09/23 01:40:20;;;;;;;9.93;3.08;;;;;;;11.68;100.00;100865.63;5194534;28;20026;-71
2023/09/23 01:42:51;;;;;;;12.70;3.90;;;;;;;11.65;100.00;100864.16;5191919;28;20029;-71
2023/09/23 01:45:23;;;;;;;15.45;3.22;;;;;;;11.67;100.00;100867.47;5202404;23;20506;-72
2023/09/23 01:47:56;;;;;;;10.50;3.90;;;;;;;11.70;100.00;100877.06;5193438;28;20025;-72
2023/09/23 01:50:27;;;;;;;10.68;3.13;;;;;;;11.68;100.00;100882.59;5194229;28;20029;-72
2023/09/23 01:53:00;;;;;;;10.65;3.58;;;;;;;11.67;100.00;100883.59;5188902;28;20557;-72
2023/09/23 01:55:49;;;;;;;17.73;3.78;;;;;;;11.66;100.00;100883.78;5136360;28;20075;-72
2023/09/23 01:58:22;;;;;;;15.27;3.72;;;;;;;11.66;100.00;100886.47;5133275;28;20045;-71
2023/09/23 02:00:58;;;;;;;15.23;3.47;;;;;;;11.67;100.00;100888.97;5138074;28;20050;-72
2023/09/23 02:03:28;;;;;;;11.60;3.80;;;;;;;11.67;100.00;100890.84;5150322;23;20035;-71
2023/09/23 02:05:59;;;;;;;15.32;3.15;;;;;;;11.66;100.00;100905.28;5197737;28;20029;-71
2023/09/23 02:08:29;;;;;;;9.00;3.38;;;;;;;11.64;100.00;100892.00;5194986;28;20612;-70
2023/09/23 02:11:00;;;;;;;8.13;3.25;;;;;;;11.58;100.00;100895.38;5178879;28;20040;-71
2023/09/23 02:13:36;;;;;;;16.13;3.35;;;;;;;11.57;100.00;100896.41;5194099;23;21182;-72
2023/09/23 02:16:07;;;;;;;11.00;3.13;;;;;;;11.50;100.00;100902.66;5194423;28;20037;-72
2023/09/23 02:18:39;;;;;;;13.45;3.30;;;;;;;11.51;100.00;100912.38;5197321;28;20029;-72
2023/09/23 02:21:12;;;;;;;9.35;3.25;;;;;;;11.53;100.00;100905.81;5192935;28;20034;-72
2023/09/23 02:23:43;;;;;;;10.70;3.33;;;;;;;11.53;100.00;100916.56;5204929;23;20034;-72
2023/09/23 02:26:17;;;;;;;9.80;3.47;;;;;;;11.50;100.00;100916.91;5173458;28;20042;-72
2023/09/23 02:28:47;;;;;;;14.77;3.25;;;;;;;11.51;100.00;100913.22;5175501;28;20037;-72
2023/09/23 02:31:19;;;;;;;16.50;3.55;;;;;;;11.50;100.00;100924.97;5176536;28;20042;-72
2023/09/23 02:33:49;;;;;;;16.38;3.47;;;;;;;11.49;100.00;100923.28;5189921;23;20144;-72
2023/09/23 02:36:20;;;;;;;11.57;3.35;;;;;;;11.49;100.00;100923.28;5203690;28;20486;-72
2023/09/23 02:38:50;;;;;;;11.20;3.60;;;;;;;11.51;100.00;100925.81;5197135;28;20021;-72
2023/09/23 02:41:22;;;;;;;12.40;3.35;;;;;;;11.56;100.00;100932.34;5182429;28;20161;-72
2023/09/23 02:43:52;;;;;;;18.45;3.90;;;;;;;11.52;100.00;100939.06;5193158;23;20033;-71
2023/09/23 02:46:23;;;;;;;10.93;3.50;;;;;;;11.45;100.00;100931.88;5203580;28;20037;-71
2023/09/23 02:48:54;;;;;;;10.27;3.60;;;;;;;11.46;100.00;100934.38;5192641;28;20028;-72
2023/09/23 02:51:24;;;;;;;15.10;3.83;;;;;;;11.48;100.00;100931.50;5177206;28;20038;-71
2023/09/23 02:53:55;;;;;;;10.45;3.60;;;;;;;11.44;100.00;100935.53;5187721;23;20401;-71
2023/09/23 02:56:27;;;;;;;10.48;3.13;;;;;;;11.41;100.00;100945.63;5178365;28;20076;-71
2023/09/23 02:58:59;;;;;;;11.02;3.88;;;;;;;11.40;100.00;100948.50;5173614;28;20517;-72
2023/09/23 03:01:30;;;;;;;11.32;3.40;;;;;;;11.40;100.00;100952.00;5155475;28;20026;-71
2023/09/23 03:04:07;;;;;;;15.25;3.70;;;;;;;11.41;100.00;100947.47;5173575;23;20091;-73
2023/09/23 03:06:40;;;;;;;14.48;4.88;;;;;;;11.41;100.00;100951.00;5181299;28;20044;-72
2023/09/23 03:09:10;;;;;;;16.45;3.50;;;;;;;11.42;100.00;100951.84;5175601;28;20034;-72
2023/09/23 03:11:48;;;;;;;15.93;4.10;;;;;;;11.40;100.00;100952.00;5177529;28;20083;-73
2023/09/23 03:14:23;;;;;;;11.60;3.40;;;;;;;11.37;100.00;100951.50;5195803;23;20099;-73
2023/09/23 03:16:54;;;;;;;11.52;3.45;;;;;;;11.35;100.00;100948.16;5195796;28;20496;-72
2023/09/23 03:19:25;;;;;;;9.07;3.83;;;;;;;11.34;100.00;100952.66;5197179;28;20017;-72
2023/09/23 03:21:56;;;;;;;12.30;3.80;;;;;;;11.36;100.00;100952.53;5201426;28;20501;-72
2023/09/23 03:24:29;;;;;;;15.50;3.78;;;;;;;11.34;100.00;100951.81;5194146;23;20070;-72
2023/09/23 03:27:00;;;;;;;9.85;3.55;;;;;;;11.34;100.00;100949.97;5180429;28;20426;-72
2023/09/23 03:29:32;;;;;;;11.38;3.92;;;;;;;11.33;100.00;100968.97;5171247;28;20053;-72
2023/09/23 03:32:03;;;;;;;13.02;3.28;;;;;;;11.35;100.00;100972.34;5164525;28;20033;-72
2023/09/23 03:34:37;;;;;;;15.70;3.58;;;;;;;11.33;100.00;100968.97;5180197;23;20030;-72
2023/09/23 03:37:08;;;;;;;12.27;3.53;;;;;;;11.28;100.00;100974.00;5174684;28;20092;-72
2023/09/23 03:39:40;;;;;;;14.40;3.67;;;;;;;11.25;100.00;100977.03;5171504;28;20039;-71
2023/09/23 03:42:12;;;;;;;13.90;3.92;;;;;;;11.20;100.00;100974.84;5156937;28;20505;-72
2023/09/23 03:44:43;;;;;;;14.18;4.57;;;;;;;11.19;100.00;100975.00;5177983;23;20528;-72
2023/09/23 03:47:13;;;;;;;10.43;4.63;;;;;;;11.15;100.00;100979.88;5177405;28;20026;-74
2023/09/23 03:49:44;;;;;;;11.23;3.90;;;;;;;11.10;100.00;100985.75;5169679;28;20438;-72
2023/09/23 03:52:14;;;;;;;9.32;3.50;;;;;;;11.07;100.00;100994.13;5156020;28;20041;-73
2023/09/23 03:54:45;;;;;;;14.00;4.15;;;;;;;11.02;100.00;100998.31;5190811;23;20398;-72
2023/09/23 03:57:15;;;;;;;14.93;3.78;;;;;;;10.98;100.00;101005.84;5199217;28;20026;-72
2023/09/23 03:59:47;;;;;;;12.20;3.78;;;;;;;10.98;100.00;100997.78;5193182;28;20370;-71
2023/09/23 04:02:18;;;;;;;18.23;5.07;;;;;;;11.00;100.00;100997.66;5183371;28;20064;-72
2023/09/23 04:04:49;;;;;;;13.57;4.97;;;;;;;10.98;100.00;101008.53;5199829;23;20472;-71
2023/09/23 04:07:21;;;;;;;14.50;4.57;;;;;;;10.95;100.00;101005.34;5198820;28;20112;-71
2023/09/23 04:09:51;;;;;;;15.05;4.72;;;;;;;10.95;100.00;101008.03;5199619;28;20021;-72
2023/09/23 04:12:22;;;;;;;12.85;4.75;;;;;;;10.91;100.00;101006.69;5200706;28;20039;-72
2023/09/23 04:14:52;;;;;;;11.35;3.70;;;;;;;10.87;100.00;101008.84;5207430;23;20067;-73
2023/09/23 04:17:24;;;;;;;17.38;3.97;;;;;;;10.83;100.00;101008.31;5200707;28;20033;-72
2023/09/23 04:19:56;;;;;;;14.52;4.43;;;;;;;10.80;100.00;101006.00;5199654;28;20025;-74
2023/09/23 04:22:26;;;;;;;14.45;4.30;;;;;;;10.79;100.00;101016.88;5197639;28;20021;-72
2023/09/23 04:24:57;;;;;;;10.20;4.22;;;;;;;10.77;100.00;101026.94;5193890;23;20420;-72
2023/09/23 04:27:27;;;;;;;10.48;4.07;;;;;;;10.80;100.00;101021.25;5179770;28;20032;-73
2023/09/23 04:30:00;;;;;;;16.55;4.32;;;;;;;10.83;100.00;101023.59;5166515;28;20391;-72
2023/09/23 04:32:31;;;;;;;9.25;4.40;;;;;;;10.82;100.00;101035.34;5157516;28;20537;-72
2023/09/23 04:35:03;;;;;;;14.18;4.15;;;;;;;10.83;100.00;101027.13;5180500;23;20124;-72
2023/09/23 04:37:37;;;;;;;13.10;4.30;;;;;;;10.83;100.00;101039.69;5178601;28;20033;-72
2023/09/23 04:40:09;;;;;;;12.13;4.88;;;;;;;10.84;100.00;101041.38;5164068;28;20102;-72
2023/09/23 04:42:41;;;;;;;10.02;4.30;;;;;;;10.87;100.00;101041.06;5163305;28;20034;-71
2023/09/23 04:45:12;;;;;;;16.05;4.72;;;;;;;10.85;100.00;101029.66;5182661;23;20038;-73
2023/09/23 04:47:45;;;;;;;12.90;4.65;;;;;;;10.82;100.00;101033.50;5173442;28;20387;-72
2023/09/23 04:50:17;;;;;;;12.60;4.10;;;;;;;10.83;100.00;101037.84;5162353;28;20026;-72
2023/09/23 04:52:48;;;;;;;12.38;4.65;;;;;;;10.82;100.00;101043.38;5161300;28;20022;-72
2023/09/23 04:55:19;;;;;;;11.18;4.85;;;;;;;10.79;100.00;101049.94;5198877;23;20505;-73
2023/09/23 04:57:50;;;;;;;12.75;4.35;;;;;;;10.79;100.00;101051.75;5198030;28;20022;-71
2023/09/23 05:00:20;;;;;;;14.88;4.85;;;;;;;10.76;100.00;101058.31;5184311;28;20029;-73
2023/09/23 05:02:52;;;;;;;18.27;5.00;;;;;;;10.76;100.00;101062.84;5178609;28;20701;-71
2023/09/23 05:05:22;;;;;;;15.95;5.15;;;;;;;10.75;100.00;101069.22;5183785;23;20046;-72
2023/09/23 05:07:53;;;;;;;11.77;4.57;;;;;;;10.73;100.00;101069.34;5176998;28;20037;-72
2023/09/23 05:10:24;;;;;;;15.50;5.05;;;;;;;10.77;100.00;101069.88;5177737;28;20045;-72
2023/09/23 05:12:56;;;;;;;16.30;4.50;;;;;;;10.77;100.00;101076.09;5175203;28;20110;-73
2023/09/23 05:15:29;;;;;;;13.77;4.72;;;;;;;10.79;100.00;101084.81;5186183;23;20050;-74
2023/09/23 05:18:00;;;;;;;15.45;4.28;;;;;;;10.76;100.00;101084.31;5178862;28;20033;-74
2023/09/23 05:20:33;;;;;;;13.80;4.63;;;;;;;10.80;100.00;101082.97;5180937;28;20030;-73
2023/09/23 05:28:16;;;;;;;14.95;5.82;;;;;;;10.77;100.00;101110.13;5177216;28;20042;-72
2023/09/23 05:30:47;;;;;;;17.67;5.20;;;;;;;10.76;100.00;101114.66;5180150;28;20056;-72
2023/09/23 05:33:19;;;;;;;14.05;5.35;;;;;;;10.71;100.00;101108.94;5189083;23;20502;-73
2023/09/23 05:35:51;;;;;;;14.85;5.25;;;;;;;10.75;100.00;101130.94;5198156;28;20045;-74
2023/09/23 05:38:22;;;;;;;13.55;5.60;;;;;;;10.77;100.00;101128.91;5197008;28;20354;-73
2023/09/23 05:40:52;;;;;;;19.30;5.57;;;;;;;10.76;100.00;101138.81;5184001;28;20044;-73
2023/09/23 05:43:23;;;;;;;14.60;4.95;;;;;;;10.74;100.00;101131.91;5190788;23;20010;-73
2023/09/23 05:45:53;;;;;;;13.38;5.10;;;;;;;10.75;100.00;101139.81;5198136;28;20025;-73
2023/09/23 05:48:24;;;;;;;18.80;5.43;;;;;;;10.79;100.00;101143.00;5197566;28;20029;-74
2023/09/23 05:51:04;;;;;;;23.73;6.65;;;;;;;10.82;100.00;101151.56;5185516;28;20037;-73
2023/09/23 05:53:35;;;;;;;13.43;5.38;;;;;;;10.88;100.00;101158.97;5186221;23;20042;-74
2023/09/23 05:56:05;;;;;;;11.20;5.30;;;;;;;10.93;100.00;101152.28;5180088;28;20038;-73
2023/09/23 05:58:36;;;;;;;26.98;5.50;;;;;;;10.97;100.00;101159.88;5178465;28;20026;-73
2023/09/23 06:01:06;;;;;;;18.25;4.88;;;;;;;10.98;100.00;101160.72;5175274;28;20128;-74
2023/09/23 06:03:37;;;;;;;15.40;5.25;;;;;;;11.01;100.00;101163.91;5188111;23;20100;-74
2023/09/23 06:06:09;;;;;;;14.32;5.40;;;;;;;11.08;100.00;101164.09;5178253;28;20266;-74
2023/09/23 06:08:40;;;;;;;22.90;5.53;;;;;;;11.11;100.00;101163.78;5183164;28;20030;-74
2023/09/23 06:11:11;;;;;;;14.95;5.47;;;;;;;11.19;100.00;101171.03;5177573;28;20041;-74
2023/09/23 06:13:41;;;;;;;16.92;5.82;;;;;;;11.24;100.00;101174.06;5189861;23;20091;-73
2023/09/23 06:16:12;;;;;;;22.35;6.03;;;;;;;11.25;100.00;101173.91;5182391;28;20042;-73
2023/09/23 06:18:42;;;;;;;18.48;5.38;;;;;;;11.38;100.00;101168.91;5182665;28;20038;-73
2023/09/23 06:21:13;;;;;;;19.13;5.85;;;;;;;11.51;100.00;101186.41;5182678;28;20455;-73
2023/09/23 06:23:44;;;;;;;22.67;5.68;;;;;;;11.62;100.00;101186.09;5185594;23;20521;-77
2023/09/23 06:26:16;;;;;;;15.20;5.63;;;;;;;11.77;100.00;101195.19;5167485;28;20031;-80
2023/09/23 06:28:46;;;;;;;18.00;5.70;;;;;;;11.93;100.00;101194.41;5166480;28;20022;-80
2023/09/23 06:31:17;;;;;;;13.85;5.15;;;;;;;12.12;100.00;101202.16;5135201;28;20037;-79
2023/09/23 06:33:47;;;;;;;13.55;4.90;;;;;;;12.17;100.00;101210.56;5175148;23;20030;-73
2023/09/23 06:36:18;;;;;;;14.98;5.20;;;;;;;12.30;100.00;101211.91;5161642;28;20045;-73
2023/09/23 06:38:48;;;;;;;13.57;5.15;;;;;;;12.52;100.00;101219.28;5163104;28;20037;-73
2023/09/23 06:41:19;;;;;;;10.07;4.53;;;;;;;12.87;100.00;101222.59;5162027;28;20030;-73
2023/09/23 06:43:51;;;;;;;11.25;4.35;;;;;;;13.30;100.00;101231.22;5168445;23;20058;-73
2023/09/23 06:46:23;;;;;;;11.68;4.63;;;;;;;13.56;100.00;101229.13;5154416;28;20022;-73
2023/09/23 06:48:53;;;;;;;11.57;4.00;;;;;;;13.72;100.00;101233.56;5150586;28;20408;-73
2023/09/23 06:51:24;;;;;;;11.88;3.80;;;;;;;14.02;100.00;101233.72;5138148;28;20041;-73
2023/09/23 06:53:54;;;;;;;9.48;3.60;;;;;;;14.22;100.00;101235.75;5154207;23;20046;-73
2023/09/23 06:56:25;;;;;;;9.77;3.13;;;;;;;14.41;100.00;101237.13;5163033;28;20029;-73
2023/09/23 06:58:55;;;;;;;7.28;2.60;;;;;;;14.66;100.00;101245.88;5161841;28;20034;-73
2023/09/23 07:01:27;;;;;;;7.55;3.17;;;;;;;14.62;100.00;101241.84;5165490;28;20080;-73
2023/09/23 07:03:57;;;;;;;11.68;2.97;;;;;;;14.76;100.00;101242.91;5168193;23;20129;-73
2023/09/23 07:06:28;;;;;;;8.13;3.35;;;;;;;14.91;100.00;101243.78;5151770;28;20351;-73
2023/09/23 07:08:58;;;;;;;8.63;3.10;;;;;;;14.99;100.00;101238.25;5143628;28;20044;-72
2023/09/23 07:11:29;;;;;;;16.08;3.03;;;;;;;15.49;100.00;101249.34;5132606;28;20035;-72
2023/09/23 07:14:03;;;;;;;6.80;2.97;;;;;;;15.64;100.00;101254.75;5150938;23;20036;-72
2023/09/23 07:16:34;;;;;;;9.32;3.58;;;;;;;16.00;100.00;101254.75;5154489;28;20407;-71
2023/09/23 07:19:04;;;;;;;9.52;2.75;;;;;;;16.14;100.00;101251.16;5152641;28;20034;-73
2023/09/23 07:21:35;;;;;;;10.10;2.75;;;;;;;16.28;100.00;101257.53;5142715;28;20215;-73
2023/09/23 07:24:05;;;;;;;10.20;2.17;;;;;;;16.31;100.00;101257.13;5162876;23;20053;-72
2023/09/23 07:26:36;;;;;;;6.20;2.55;;;;;;;16.27;100.00;101264.00;5170133;28;20049;-73
2023/09/23 07:29:07;;;;;;;10.95;2.83;;;;;;;16.04;100.00;101273.13;5165980;28;20023;-72
2023/09/23 07:31:37;;;;;;;8.18;2.22;;;;;;;16.37;100.00;101269.91;5162452;28;20022;-72
2023/09/23 07:34:08;;;;;;;13.25;2.53;;;;;;;16.07;100.00;101280.03;5160824;23;20042;-72
2023/09/23 07:36:39;;;;;;;8.15;2.50;;;;;;;16.22;100.00;101291.63;5141576;28;20034;-73
2023/09/23 07:39:10;;;;;;;5.65;2.00;;;;;;;16.16;100.00;101292.38;5141398;28;20177;-72
2023/09/23 07:41:41;;;;;;;8.15;2.10;;;;;;;16.25;100.00;101291.22;5139574;28;20507;-72
2023/09/23 07:44:11;;;;;;;7.80;2.25;;;;;;;16.42;100.00;101305.38;5205160;23;20282;-71
2023/09/23 07:46:43;;;;;;;9.70;2.17;;;;;;;16.49;100.00;101308.13;5139570;28;20023;-72
2023/09/23 07:49:14;;;;;;;7.45;2.40;;;;;;;16.68;100.00;101321.03;5137465;28;20518;-71
2023/09/23 07:51:45;;;;;;;8.38;2.60;;;;;;;16.64;100.00;101314.31;5139648;28;20026;-71
2023/09/23 07:54:16;;;;;;;10.55;2.17;;;;;;;17.05;100.00;101325.31;5139435;28;20034;-71
2023/09/23 07:56:47;;;;;;;8.90;2.17;;;;;;;17.11;100.00;101325.56;5141330;28;20034;-70
2023/09/23 07:59:19;;;;;;;10.02;2.20;;;;;;;17.29;100.00;101329.44;5140978;28;20027;-71
2023/09/23 08:01:49;;;;;;;6.97;2.38;;;;;;;17.29;100.00;101334.88;5108039;28;20062;-71
2023/09/23 08:04:20;;;;;;;8.63;1.77;;;;;;;17.32;100.00;101339.06;5140763;28;20675;-71
2023/09/23 08:06:50;;;;;;;8.30;2.15;;;;;;;17.38;100.00;101345.56;5142928;28;20040;-71
2023/09/23 08:09:21;;;;;;;9.10;2.50;;;;;;;17.47;100.00;101360.63;5139425;28;20037;-71
2023/09/23 08:11:52;;;;;;;6.30;2.17;;;;;;;17.49;100.00;101356.69;5140719;28;20058;-71
2023/09/23 08:14:22;;;;;;;8.65;2.00;;;;;;;17.72;100.00;101366.41;5139559;28;20033;-71
2023/09/23 08:16:53;;;;;;;9.35;2.28;;;;;;;17.35;100.00;101369.31;5140472;28;20026;-71
2023/09/23 08:19:25;;;;;;;8.63;2.17;;;;;;;17.52;100.00;101372.59;5137075;28;20547;-71
2023/09/23 08:21:55;;;;;;;7.95;2.08;;;;;;;17.74;100.00;101381.50;5137951;28;20459;-71
2023/09/23 08:24:26;;;;;;;11.13;2.65;;;;;;;17.59;100.00;101397.88;5136984;28;20047;-71
2023/09/23 08:26:56;;;;;;;7.43;2.10;;;;;;;17.73;100.00;101392.56;5140177;28;20062;-71
2023/09/23 08:29:29;;;;;;;9.20;2.28;;;;;;;17.83;100.00;101404.72;5137675;28;20130;-71
2023/09/23 08:32:00;;;;;;;9.00;1.92;;;;;;;17.49;100.00;101405.53;5139895;28;20034;-71
2023/09/23 08:34:30;;;;;;;9.98;2.42;;;;;;;17.35;100.00;101401.88;5137866;28;20027;-71
2023/09/23 08:37:01;;;;;;;10.23;2.33;;;;;;;17.31;100.00;101399.75;5140008;28;20035;-71
2023/09/23 08:39:31;;;;;;;8.20;2.70;;;;;;;17.64;100.00;101402.69;5139402;28;20023;-71
2023/09/23 08:42:03;;;;;;;4.65;2.33;;;;;;;17.83;100.00;101412.03;5140501;28;20035;-71
2023/09/23 08:44:35;;;;;;;9.75;2.50;;;;;;;17.78;100.00;101420.78;5140702;28;20110;-72
2023/09/23 08:47:05;;;;;;;7.97;2.20;;;;;;;17.73;100.00;101408.84;5137715;28;20431;-71
2023/09/23 08:49:37;;;;;;;8.10;2.53;;;;;;;17.57;100.00;101413.50;5121636;28;20034;-71
2023/09/23 08:52:08;;;;;;;9.85;2.17;;;;;;;17.72;100.00;101417.97;5139461;28;20296;-71
2023/09/23 08:54:40;;;;;;;10.80;2.67;;;;;;;17.89;100.00;101423.97;5140573;28;20030;-71
2023/09/23 08:57:10;;;;;;;9.13;2.10;;;;;;;18.08;100.00;101425.94;5139120;28;20031;-71
2023/09/23 08:59:41;;;;;;;10.85;2.15;;;;;;;18.07;100.00;101418.81;5136843;28;20033;-72
2023/09/23 09:02:25;;;;;;;11.20;2.42;;;;;;;18.36;100.00;101429.38;5139474;28;20269;-71
2023/09/23 09:04:57;;;;;;;13.38;2.20;;;;;;;18.29;100.00;101428.53;5140471;28;20049;-71
2023/09/23 09:07:35;;;;;;;9.13;2.25;;;;;;;18.44;100.00;101435.69;5141007;28;20081;-71
2023/09/23 09:10:06;;;;;;;10.30;1.80;;;;;;;18.71;100.00;101440.19;5139880;28;20476;-72
2023/09/23 09:12:36;;;;;;;6.68;1.35;;;;;;;18.74;100.00;101439.78;5140056;28;20045;-71
2023/09/23 09:15:08;;;;;;;10.25;2.22;;;;;;;18.35;100.00;101443.19;5142655;28;20035;-71
2023/09/23 09:17:41;;;;;;;5.82;1.60;;;;;;;18.33;100.00;101454.25;5143806;28;20031;-71
2023/09/23 09:20:12;;;;;;;5.95;1.48;;;;;;;18.41;100.00;101452.38;5140127;28;20090;-71
2023/09/23 09:22:45;;;;;;;5.20;1.20;;;;;;;18.16;100.00;101460.22;5143302;28;20076;-71
2023/09/23 09:25:20;;;;;;;5.18;1.75;;;;;;;18.45;100.00;101465.38;5140916;28;20034;-71
2023/09/23 09:27:52;;;;;;;12.05;2.63;;;;;;;18.76;100.00;101467.59;5142120;28;20026;-71
2023/09/23 09:30:22;;;;;;;4.32;1.70;;;;;;;18.87;100.00;101482.44;5139155;28;20033;-71
2023/09/23 09:32:59;;;;;;;7.38;1.77;;;;;;;19.21;100.00;101476.03;5139214;28;20395;-72
2023/09/23 09:35:31;;;;;;;8.10;1.83;;;;;;;19.34;100.00;101472.50;5125194;28;20024;-71
2023/09/23 09:38:06;;;;;;;7.05;1.63;;;;;;;19.44;100.00;101472.06;5135999;28;20046;-71
2023/09/23 09:40:37;;;;;;;10.52;2.30;;;;;;;19.26;100.00;101469.97;5139267;28;20427;-71
2023/09/23 09:43:08;;;;;;;8.15;1.88;;;;;;;19.16;100.00;101473.09;5139465;28;20030;-71
2023/09/23 09:45:40;;;;;;;10.63;1.83;;;;;;;19.18;100.00;101470.16;5138944;28;20229;-71
2023/09/23 09:48:14;;;;;;;4.53;1.60;;;;;;;18.93;100.00;101468.06;5138362;28;20351;-71
2023/09/23 09:50:45;;;;;;;5.03;1.85;;;;;;;18.76;100.00;101477.63;5139498;28;20054;-72
2023/09/23 09:53:18;;;;;;;6.70;1.80;;;;;;;18.82;100.00;101477.63;5136820;28;20037;-71
2023/09/23 09:55:50;;;;;;;10.07;1.90;;;;;;;18.75;100.00;101479.50;5142289;28;20027;-72
2023/09/23 09:58:23;;;;;;;5.88;1.60;;;;;;;18.57;100.00;101482.75;5139261;28;20031;-72
2023/09/23 10:00:56;;;;;;;6.95;1.48;;;;;;;18.57;100.00;101485.47;5138723;28;20361;-73
2023/09/23 10:03:28;;;;;;;5.85;2.03;;;;;;;18.45;100.00;101487.09;5138672;28;20023;-72
2023/09/23 10:06:00;;;;;;;12.40;1.80;;;;;;;18.51;100.00;101485.44;5139863;28;20034;-72
2023/09/23 10:08:38;;;;;;;4.32;1.40;;;;;;;18.70;100.00;101490.16;5135148;28;20026;-73
2023/09/23 10:11:08;;;;;;;6.50;1.83;;;;;;;18.67;100.00;101493.22;5136669;28;20045;-72
2023/09/23 10:13:39;;;;;;;5.28;1.45;;;;;;;18.69;100.00;101502.06;5138440;28;20607;-73
2023/09/23 10:16:13;;;;;;;7.25;1.83;;;;;;;18.63;100.00;101500.97;5138608;28;20039;-72
2023/09/23 10:18:44;;;;;;;8.00;2.05;;;;;;;18.71;100.00;101490.97;5133689;28;20023;-71
2023/09/23 10:21:23;;;;;;;7.82;1.92;;;;;;;19.08;100.00;101497.78;5130043;28;20470;-71
2023/09/23 10:23:56;;;;;;;8.80;2.20;;;;;;;19.28;100.00;101509.53;5138655;28;20105;-71
2023/09/23 10:26:28;;;;;;;4.05;2.10;;;;;;;19.71;100.00;101495.53;5134579;28;20469;-72
2023/09/23 10:29:03;;;;;;;6.38;2.05;;;;;;;19.99;100.00;101502.63;5139921;28;20030;-73
2023/09/23 10:31:34;;;;;;;10.38;2.03;;;;;;;19.85;100.00;101499.06;5131413;28;20444;-72
2023/09/23 10:34:08;;;;;;;4.00;1.92;;;;;;;19.35;100.00;101499.47;5133095;28;20113;-73
2023/09/23 10:36:40;;;;;;;10.25;2.03;;;;;;;19.07;100.00;101515.13;5137468;28;20117;-73
2023/09/23 10:39:15;;;;;;;5.97;1.70;;;;;;;18.89;100.00;101502.13;5139451;28;20110;-72
2023/09/23 10:41:46;;;;;;;4.65;1.80;;;;;;;19.16;100.00;101505.72;5134576;28;20504;-72
2023/09/23 10:44:23;;;;;;;12.85;2.05;;;;;;;19.28;100.00;101506.81;5133234;28;20065;-72
2023/09/23 10:46:53;;;;;;;6.53;1.90;;;;;;;19.39;100.00;101508.91;5135552;28;20078;-73
2023/09/23 10:49:25;;;;;;;9.43;2.22;;;;;;;19.66;100.00;101514.38;5136960;28;20391;-73
2023/09/23 10:51:57;;;;;;;6.47;1.95;;;;;;;19.89;100.00;101513.94;5134070;28;20491;-73
2023/09/23 10:54:28;;;;;;;7.75;2.20;;;;;;;19.91;100.00;101512.66;5139698;28;20029;-73
2023/09/23 10:57:00;;;;;;;7.78;1.77;;;;;;;19.85;100.00;101520.84;5136376;28;20523;-73
2023/09/23 10:59:31;;;;;;;3.38;1.20;;;;;;;19.65;100.00;101523.59;5133312;28;20034;-73
2023/09/23 11:02:05;;;;;;;4.25;1.30;;;;;;;19.16;100.00;101516.59;5140863;28;20018;-72
2023/09/23 11:04:35;;;;;;;6.38;1.50;;;;;;;18.91;100.00;101521.78;5137327;28;20062;-72
2023/09/23 11:07:06;;;;;;;4.72;1.45;;;;;;;18.85;100.00;101528.03;5142475;28;20109;-71
2023/09/23 11:09:38;;;;;;;7.03;1.60;;;;;;;18.99;100.00;101537.91;5134516;28;20038;-71
2023/09/23 11:12:12;;;;;;;7.10;1.60;;;;;;;19.24;100.00;101535.47;5133262;28;20031;-71
2023/09/23 11:14:45;;;;;;;5.93;1.67;;;;;;;19.41;100.00;101533.16;5140546;28;20050;-71
2023/09/23 11:17:20;;;;;;;8.57;1.95;;;;;;;19.35;100.00;101544.91;5141909;28;20440;-71
2023/09/23 11:19:53;;;;;;;7.32;1.70;;;;;;;19.44;100.00;101553.69;5142450;28;20103;-72
2023/09/23 11:22:25;;;;;;;5.45;1.65;;;;;;;19.39;100.00;101554.31;5136744;28;20046;-71
2023/09/23 11:24:57;;;;;;;6.05;1.63;;;;;;;19.22;100.00;101555.75;5138547;28;20035;-71
2023/09/23 11:27:30;;;;;;;4.70;1.83;;;;;;;19.11;100.00;101557.19;5140889;28;20060;-72
2023/09/23 11:30:01;;;;;;;4.97;2.33;;;;;;;19.00;100.00;101555.91;5139272;28;20038;-72
2023/09/23 11:32:33;;;;;;;8.18;1.77;;;;;;;18.87;100.00;101561.28;5140705;28;20150;-71
2023/09/23 11:35:04;;;;;;;11.82;2.30;;;;;;;18.83;100.00;101571.75;5141691;28;20031;-71
2023/09/23 11:37:34;;;;;;;9.10;1.63;;;;;;;18.70;100.00;101568.97;5137361;28;20027;-72